createdAt,value
2018-02-05T00:01:42.095Z,2.72
2018-02-05T00:04:09.714Z,2.75
2018-02-05T00:06:37.284Z,2.59
2018-02-05T00:09:04.933Z,2.59
2018-02-05T00:11:32.526Z,2.64
2018-02-05T00:14:00.092Z,2.71
2018-02-05T00:16:27.686Z,2.77
2018-02-05T00:18:55.259Z,2.73
2018-02-05T00:21:22.799Z,2.67
2018-02-05T00:23:50.412Z,2.62
2018-02-05T00:26:17.980Z,2.63
2018-02-05T00:28:45.644Z,2.63
2018-02-05T00:31:13.271Z,2.60
2018-02-05T00:33:40.835Z,2.65
2018-02-05T00:36:08.633Z,2.66
2018-02-05T00:38:36.235Z,2.76
2018-02-05T00:41:03.958Z,2.79
2018-02-05T00:43:31.550Z,2.86
2018-02-05T00:45:59.165Z,2.94
2018-02-05T00:48:26.719Z,2.95
2018-02-05T00:50:54.280Z,2.79
2018-02-05T00:53:21.891Z,2.66
2018-02-05T00:55:49.438Z,2.62
2018-02-05T00:58:17.018Z,2.63
2018-02-05T01:00:44.651Z,2.55
2018-02-05T01:03:12.232Z,2.55
2018-02-05T01:05:39.817Z,2.45
2018-02-05T01:08:07.424Z,2.41
2018-02-05T01:10:34.993Z,2.41
2018-02-05T01:13:02.548Z,2.35
2018-02-05T01:15:30.133Z,2.31
2018-02-05T01:17:57.845Z,2.23
2018-02-05T01:20:25.427Z,2.19
2018-02-05T01:22:53.034Z,2.21
2018-02-05T01:25:20.587Z,2.21
2018-02-05T01:27:48.142Z,2.17
2018-02-05T01:30:15.739Z,2.25
2018-02-05T01:32:43.316Z,2.36
2018-02-05T01:35:10.900Z,2.35
2018-02-05T01:37:38.500Z,2.36
2018-02-05T01:40:06.055Z,2.43
2018-02-05T01:42:33.629Z,2.51
2018-02-05T01:45:01.234Z,2.54
2018-02-05T01:47:28.793Z,2.58
2018-02-05T01:49:56.365Z,2.51
2018-02-05T01:52:23.960Z,2.49
2018-02-05T01:54:51.530Z,2.51
2018-02-05T01:57:20.917Z,2.46
2018-02-05T01:59:50.585Z,2.37
2018-02-05T02:02:19.717Z,2.35
2018-02-05T02:04:48.985Z,2.25
2018-02-05T02:07:18.386Z,2.19
2018-02-05T02:09:47.478Z,2.09
2018-02-05T02:12:17.252Z,2.12
2018-02-05T02:14:46.533Z,2.20
2018-02-05T02:17:15.695Z,2.19
2018-02-05T02:19:45.026Z,2.25
2018-02-05T02:22:14.525Z,2.22
2018-02-05T02:24:42.174Z,2.28
2018-02-05T02:27:09.899Z,2.30
2018-02-05T02:29:37.494Z,2.32
2018-02-05T02:32:05.066Z,2.36
2018-02-05T02:34:32.636Z,2.42
2018-02-05T02:37:00.243Z,2.44
2018-02-05T02:39:28.019Z,2.43
2018-02-05T02:41:55.598Z,2.42
2018-02-05T02:44:23.200Z,2.43
2018-02-05T02:46:50.774Z,2.36
2018-02-05T02:49:18.344Z,2.28
2018-02-05T02:51:45.941Z,2.27
2018-02-05T02:54:13.493Z,2.25
2018-02-05T02:56:41.065Z,2.21
2018-02-05T02:59:08.685Z,2.21
2018-02-05T03:01:36.257Z,2.16
2018-02-05T03:04:04.025Z,2.14
2018-02-05T03:06:31.637Z,2.00
2018-02-05T03:08:59.251Z,2.09
2018-02-05T03:11:26.832Z,2.08
2018-02-05T03:13:54.514Z,2.08
2018-02-05T03:16:22.089Z,2.09
2018-02-05T03:18:49.661Z,2.09
2018-02-05T03:21:17.368Z,2.02
2018-02-05T03:23:44.942Z,2.06
2018-02-05T03:26:12.512Z,2.08
2018-02-05T03:28:40.111Z,2.09
2018-02-05T03:31:07.679Z,2.16
2018-02-05T03:33:35.461Z,2.21
2018-02-05T03:36:03.125Z,2.26
2018-02-05T03:38:30.833Z,2.28
2018-02-05T03:40:58.649Z,2.31
2018-02-05T03:43:26.328Z,2.42
2018-02-05T03:45:53.895Z,2.42
2018-02-05T03:48:21.471Z,2.52
2018-02-05T03:50:49.110Z,2.59
2018-02-05T03:53:16.678Z,2.70
2018-02-05T03:55:44.267Z,2.70
2018-02-05T03:58:11.892Z,2.64
2018-02-05T04:00:39.446Z,2.60
2018-02-05T04:03:07.016Z,2.47
2018-02-05T04:05:34.636Z,2.49
2018-02-05T04:08:02.213Z,2.46
2018-02-05T04:10:29.800Z,2.47
2018-02-05T04:12:57.689Z,2.45
2018-02-05T04:15:25.304Z,2.41
2018-02-05T04:17:52.975Z,2.46
2018-02-05T04:20:20.589Z,2.48
2018-02-05T04:22:48.171Z,2.53
2018-02-05T04:25:15.734Z,2.54
2018-02-05T04:27:43.338Z,2.57
2018-02-05T04:30:10.910Z,2.63
2018-02-05T04:32:38.480Z,2.67
2018-02-05T04:35:06.111Z,2.69
2018-02-05T04:37:33.741Z,2.72
2018-02-05T04:40:01.323Z,2.75
2018-02-05T04:42:28.939Z,2.79
2018-02-05T04:44:56.501Z,2.88
2018-02-05T04:47:24.158Z,2.85
2018-02-05T04:49:51.800Z,2.87
2018-02-05T04:52:19.379Z,2.89
2018-02-05T04:54:47.099Z,2.90
2018-02-05T04:57:14.720Z,2.96
2018-02-05T04:59:42.291Z,2.95
2018-02-05T05:02:09.874Z,2.90
2018-02-05T05:04:37.488Z,2.96
2018-02-05T05:07:05.070Z,2.98
2018-02-05T05:09:32.650Z,3.04
2018-02-05T05:12:00.274Z,3.00
2018-02-05T05:14:27.866Z,2.89
2018-02-05T05:16:55.458Z,2.83
2018-02-05T05:19:23.077Z,2.77
2018-02-05T05:21:50.664Z,2.67
2018-02-05T05:24:18.248Z,2.53
2018-02-05T05:26:45.867Z,2.53
2018-02-05T05:29:13.435Z,2.50
2018-02-05T05:31:40.999Z,2.43
2018-02-05T05:34:08.597Z,2.40
2018-02-05T05:36:36.169Z,2.38
2018-02-05T05:39:03.789Z,2.30
2018-02-05T05:41:31.398Z,2.31
2018-02-05T05:43:59.014Z,2.29
2018-02-05T05:46:26.591Z,2.32
2018-02-05T05:48:54.349Z,2.41
2018-02-05T05:51:21.933Z,2.42
2018-02-05T05:53:49.499Z,2.44
2018-02-05T05:56:17.120Z,2.46
2018-02-05T05:58:44.698Z,2.53
2018-02-05T06:01:12.270Z,2.53
2018-02-05T06:03:39.882Z,2.58
2018-02-05T06:06:07.461Z,2.65
2018-02-05T06:08:35.014Z,2.64
2018-02-05T06:11:02.616Z,2.79
2018-02-05T06:13:30.205Z,3.27
2018-02-05T06:15:57.879Z,3.57
2018-02-05T06:18:25.498Z,3.71
2018-02-05T06:20:53.063Z,4.45
2018-02-05T06:23:20.690Z,5.80
2018-02-05T06:25:48.350Z,7.16
2018-02-05T06:28:16.011Z,7.98
2018-02-05T06:30:43.676Z,8.86
2018-02-05T06:33:11.293Z,9.80
2018-02-05T06:35:38.863Z,10.23
2018-02-05T06:38:06.442Z,10.69
2018-02-05T06:40:34.047Z,11.05
2018-02-05T06:43:01.612Z,10.98
2018-02-05T06:45:29.208Z,11.57
2018-02-05T06:47:56.815Z,11.64
2018-02-05T06:50:36.229Z,11.58
2018-02-05T06:53:15.418Z,12.07
2018-02-05T06:55:47.811Z,11.95
2018-02-05T06:58:15.723Z,12.14
2018-02-05T07:00:43.476Z,12.61
2018-02-05T07:03:11.056Z,12.71
2018-02-05T07:05:38.734Z,13.16
2018-02-05T07:08:06.339Z,12.40
2018-02-05T07:10:33.913Z,12.34
2018-02-05T07:13:01.532Z,12.30
2018-02-05T07:15:29.128Z,12.82
2018-02-05T07:17:56.712Z,12.93
2018-02-05T07:20:24.361Z,13.02
2018-02-05T07:22:52.099Z,13.97
2018-02-05T07:25:19.729Z,14.70
2018-02-05T07:27:47.492Z,14.73
2018-02-05T07:30:15.250Z,14.79
2018-02-05T07:32:42.830Z,14.77
2018-02-05T07:35:10.544Z,14.69
2018-02-05T07:37:38.120Z,15.07
2018-02-05T07:40:05.757Z,14.97
2018-02-05T07:42:33.374Z,15.63
2018-02-05T07:45:00.973Z,15.53
2018-02-05T07:47:28.597Z,15.96
2018-02-05T07:49:56.256Z,15.39
2018-02-05T07:52:23.857Z,15.43
2018-02-05T07:54:51.444Z,15.87
2018-02-05T07:57:19.052Z,14.99
2018-02-05T07:59:46.624Z,14.54
2018-02-05T08:02:14.251Z,13.88
2018-02-05T08:04:41.947Z,14.41
2018-02-05T08:07:09.524Z,14.50
2018-02-05T08:09:37.101Z,14.36
2018-02-05T08:12:04.711Z,14.36
2018-02-05T08:14:32.292Z,14.59
2018-02-05T08:16:59.907Z,14.62
2018-02-05T08:19:27.569Z,14.15
2018-02-05T08:21:55.135Z,14.50
2018-02-05T08:24:22.730Z,14.97
2018-02-05T08:26:50.325Z,14.78
2018-02-05T08:29:17.902Z,14.72
2018-02-05T08:31:45.486Z,14.26
2018-02-05T08:34:13.085Z,14.35
2018-02-05T08:36:40.670Z,14.69
2018-02-05T08:39:08.240Z,14.58
2018-02-05T08:41:35.862Z,14.54
2018-02-05T08:44:03.456Z,13.56
2018-02-05T08:46:31.072Z,13.96
2018-02-05T08:48:58.682Z,14.00
2018-02-05T08:51:26.267Z,14.72
2018-02-05T08:53:53.904Z,15.10
2018-02-05T08:56:21.522Z,15.39
2018-02-05T08:58:49.097Z,15.23
2018-02-05T09:01:16.677Z,14.26
2018-02-05T09:03:44.296Z,14.36
2018-02-05T09:06:11.881Z,14.25
2018-02-05T09:08:39.443Z,14.23
2018-02-05T09:11:07.048Z,14.77
2018-02-05T09:13:34.630Z,14.95
2018-02-05T09:16:02.311Z,14.88
2018-02-05T09:18:29.923Z,15.11
2018-02-05T09:20:57.517Z,14.63
2018-02-05T09:23:25.104Z,14.00
2018-02-05T09:25:52.708Z,14.55
2018-02-05T09:28:20.282Z,15.25
2018-02-05T09:30:47.927Z,16.06
2018-02-05T09:33:15.536Z,15.93
2018-02-05T09:35:43.109Z,16.79
2018-02-05T09:38:10.682Z,16.71
2018-02-05T09:40:38.290Z,17.51
2018-02-05T09:43:05.877Z,17.19
2018-02-05T09:48:07.465Z,17.42
2018-02-05T09:50:35.074Z,17.23
2018-02-05T09:53:02.730Z,17.97
2018-02-05T09:55:30.344Z,18.47
2018-02-05T09:57:57.924Z,17.98
2018-02-05T10:00:25.508Z,17.82
2018-02-05T10:02:53.113Z,17.71
2018-02-05T10:05:20.685Z,16.59
2018-02-05T10:07:48.277Z,15.94
2018-02-05T10:10:15.908Z,16.54
2018-02-05T10:12:43.518Z,16.31
2018-02-05T10:15:11.098Z,16.84
2018-02-05T10:17:38.712Z,16.80
2018-02-05T10:20:06.272Z,17.42
2018-02-05T10:22:33.832Z,17.30
2018-02-05T10:25:01.436Z,16.99
2018-02-05T10:27:28.993Z,17.21
2018-02-05T10:29:56.573Z,16.89
2018-02-05T10:32:24.222Z,17.47
2018-02-05T10:34:51.883Z,16.78
2018-02-05T10:37:20.750Z,16.94
2018-02-05T10:39:49.091Z,17.80
2018-02-05T10:42:18.129Z,17.90
2018-02-05T10:44:47.420Z,18.60
2018-02-05T10:47:16.897Z,17.41
2018-02-05T10:49:47.204Z,18.86
2018-02-05T10:52:16.429Z,18.11
2018-02-05T10:54:44.902Z,18.14
2018-02-05T10:57:13.082Z,17.92
2018-02-05T10:59:41.357Z,18.49
2018-02-05T11:02:09.960Z,18.10
2018-02-05T11:04:38.334Z,17.56
2018-02-05T11:07:07.010Z,17.27
2018-02-05T11:09:36.404Z,17.32
2018-02-05T11:12:05.043Z,17.91
2018-02-05T11:14:34.143Z,18.16
2018-02-05T11:17:03.272Z,18.22
2018-02-05T11:19:32.314Z,16.68
2018-02-05T11:22:01.486Z,18.18
2018-02-05T11:24:31.078Z,18.77
2018-02-05T11:27:00.111Z,18.71
2018-02-05T11:29:29.079Z,17.92
2018-02-05T11:31:56.827Z,16.74
2018-02-05T11:34:24.429Z,17.54
2018-02-05T11:36:52.001Z,17.93
2018-02-05T11:39:19.608Z,17.69
2018-02-05T11:41:47.180Z,18.93
2018-02-05T11:44:14.750Z,18.31
2018-02-05T11:46:42.511Z,17.54
2018-02-05T11:49:10.093Z,17.97
2018-02-05T11:51:37.695Z,17.70
2018-02-05T11:54:05.300Z,17.34
2018-02-05T11:56:33.434Z,17.22
2018-02-05T11:59:01.019Z,17.18
2018-02-05T12:01:28.664Z,17.34
2018-02-05T12:03:56.238Z,18.70
2018-02-05T12:06:23.817Z,18.83
2018-02-05T12:08:51.437Z,19.09
2018-02-05T12:11:19.128Z,18.74
2018-02-05T12:13:46.690Z,17.74
2018-02-05T12:16:14.304Z,18.44
2018-02-05T12:18:41.946Z,16.60
2018-02-05T12:21:09.633Z,16.72
2018-02-05T12:23:37.239Z,16.63
2018-02-05T12:26:04.828Z,17.87
2018-02-05T12:28:32.395Z,17.83
2018-02-05T12:31:00.010Z,17.77
2018-02-05T12:33:27.591Z,16.92
2018-02-05T12:35:55.154Z,16.56
2018-02-05T12:38:22.751Z,15.94
2018-02-05T12:40:51.184Z,16.42
2018-02-05T12:43:18.754Z,17.12
2018-02-05T12:45:46.489Z,17.02
2018-02-05T12:48:14.111Z,16.87
2018-02-05T12:50:41.689Z,15.95
2018-02-05T12:53:09.332Z,15.67
2018-02-05T12:55:36.944Z,15.36
2018-02-05T12:58:04.561Z,16.92
2018-02-05T13:03:38.411Z,18.88
2018-02-05T13:09:08.274Z,19.53
2018-02-05T13:11:35.880Z,19.73
2018-02-05T13:14:03.474Z,18.78
2018-02-05T13:16:31.047Z,18.61
2018-02-05T13:18:58.639Z,16.95
2018-02-05T13:21:26.196Z,16.42
2018-02-05T13:23:53.776Z,16.41
2018-02-05T13:26:21.403Z,14.99
2018-02-05T13:28:48.977Z,15.73
2018-02-05T13:31:16.567Z,16.80
2018-02-05T13:33:44.213Z,16.56
2018-02-05T13:36:11.788Z,16.48
2018-02-05T13:38:39.363Z,17.12
2018-02-05T13:41:06.977Z,15.69
2018-02-05T13:43:34.561Z,16.43
2018-02-05T13:46:02.126Z,16.31
2018-02-05T13:48:29.743Z,16.11
2018-02-05T13:50:57.508Z,15.31
2018-02-05T13:53:25.177Z,15.50
2018-02-05T13:55:52.776Z,16.26
2018-02-05T13:58:20.351Z,15.48
2018-02-05T14:00:47.946Z,16.34
2018-02-05T14:03:15.550Z,15.79
2018-02-05T14:05:43.132Z,15.63
2018-02-05T14:08:10.940Z,16.06
2018-02-05T14:10:38.597Z,14.28
2018-02-05T14:13:06.342Z,13.58
2018-02-05T14:15:34.177Z,12.91
2018-02-05T14:18:01.836Z,12.14
2018-02-05T14:20:29.461Z,11.47
2018-02-05T14:22:57.021Z,10.87
2018-02-05T14:25:24.694Z,10.55
2018-02-05T14:27:52.358Z,10.15
2018-02-05T14:30:19.978Z,9.75
2018-02-05T14:32:47.614Z,9.60
2018-02-05T14:35:15.226Z,9.23
2018-02-05T14:37:42.795Z,8.84
2018-02-05T14:40:10.411Z,8.73
2018-02-05T14:42:37.959Z,8.47
2018-02-05T14:45:05.517Z,8.35
2018-02-05T14:47:33.124Z,8.36
2018-02-05T14:50:00.693Z,8.18
2018-02-05T14:52:28.256Z,8.11
2018-02-05T14:54:55.860Z,8.01
2018-02-05T14:57:23.452Z,7.89
2018-02-05T14:59:51.007Z,7.82
2018-02-05T15:02:18.665Z,7.83
2018-02-05T15:04:46.245Z,7.70
2018-02-05T15:07:13.809Z,7.69
2018-02-05T15:09:41.474Z,7.55
2018-02-05T15:12:09.054Z,7.41
2018-02-05T15:14:36.658Z,7.29
2018-02-05T15:17:04.257Z,7.15
2018-02-05T15:19:31.849Z,7.04
2018-02-05T15:21:59.493Z,6.95
2018-02-05T15:24:27.136Z,6.86
2018-02-05T15:26:54.700Z,6.81
2018-02-05T15:29:22.264Z,6.73
2018-02-05T15:31:49.883Z,6.68
2018-02-05T15:34:17.448Z,6.58
2018-02-05T15:36:45.142Z,6.46
2018-02-05T15:39:12.761Z,6.35
2018-02-05T15:41:40.321Z,6.18
2018-02-05T15:44:07.964Z,6.10
2018-02-05T15:46:35.586Z,5.93
2018-02-05T15:49:03.159Z,5.83
2018-02-05T15:51:30.761Z,5.76
2018-02-05T15:53:58.370Z,5.70
2018-02-05T15:56:26.078Z,5.66
2018-02-05T15:58:53.675Z,5.82
2018-02-05T16:01:21.300Z,5.70
2018-02-05T16:03:48.919Z,5.55
2018-02-05T16:06:16.487Z,5.43
2018-02-05T16:08:44.108Z,5.30
2018-02-05T16:11:11.685Z,5.19
2018-02-05T16:13:39.328Z,5.02
2018-02-05T16:16:06.976Z,4.91
2018-02-05T16:18:35.330Z,4.90
2018-02-05T16:21:02.904Z,4.89
2018-02-05T16:23:30.533Z,4.82
2018-02-05T16:25:58.170Z,4.79
2018-02-05T16:28:25.729Z,4.73
2018-02-05T16:30:53.346Z,4.65
2018-02-05T16:33:20.914Z,4.61
2018-02-05T16:35:48.505Z,4.51
2018-02-05T16:38:16.142Z,4.44
2018-02-05T16:40:43.804Z,4.39
2018-02-05T16:43:13.975Z,4.31
2018-02-05T16:45:41.946Z,4.18
2018-02-05T16:48:11.123Z,4.08
2018-02-05T16:50:38.921Z,4.00
2018-02-05T16:53:06.537Z,3.94
2018-02-05T16:55:34.129Z,3.87
2018-02-05T16:58:01.761Z,3.85
2018-02-05T17:00:29.408Z,3.91
2018-02-05T17:02:56.995Z,3.85
2018-02-05T17:05:24.581Z,3.79
2018-02-05T17:07:52.181Z,3.73
2018-02-05T17:10:20.646Z,3.54
2018-02-05T17:12:48.211Z,3.41
2018-02-05T17:15:15.835Z,3.44
2018-02-05T17:17:43.407Z,3.45
2018-02-05T17:20:11.002Z,3.41
2018-02-05T17:22:39.498Z,3.38
2018-02-05T17:25:07.058Z,3.28
2018-02-05T17:27:34.628Z,3.12
2018-02-05T17:30:02.227Z,3.16
2018-02-05T17:32:29.788Z,3.14
2018-02-05T17:34:57.386Z,3.24
2018-02-05T17:37:25.123Z,3.23
2018-02-05T17:39:52.697Z,3.20
2018-02-05T17:42:20.267Z,2.99
2018-02-05T17:44:47.869Z,2.98
2018-02-05T17:47:15.463Z,2.93
2018-02-05T17:49:43.225Z,2.80
2018-02-05T17:52:10.824Z,2.85
2018-02-05T17:54:38.392Z,2.76
2018-02-05T17:57:05.966Z,2.69
2018-02-05T17:59:33.547Z,2.65
2018-02-05T18:02:01.114Z,2.52
2018-02-05T18:04:28.877Z,2.52
2018-02-05T18:06:56.484Z,2.48
2018-02-05T18:09:24.064Z,2.53
2018-02-05T18:11:51.726Z,2.53
2018-02-05T18:14:19.317Z,2.48
2018-02-05T18:16:46.886Z,2.45
2018-02-05T18:19:14.447Z,2.38
2018-02-05T18:21:42.054Z,2.28
2018-02-05T18:24:09.762Z,2.18
2018-02-05T18:26:37.367Z,2.14
2018-02-05T18:29:05.043Z,2.08
2018-02-05T18:31:32.618Z,2.02
2018-02-05T18:34:00.187Z,1.98
2018-02-05T18:36:27.829Z,1.98
2018-02-05T18:38:55.532Z,1.98
2018-02-05T18:41:23.110Z,1.96
2018-02-05T18:43:50.748Z,2.02
2018-02-05T18:46:18.353Z,2.00
2018-02-05T18:48:45.930Z,1.96
2018-02-05T18:51:13.537Z,1.89
2018-02-05T18:53:41.124Z,1.90
2018-02-05T18:56:08.691Z,1.85
2018-02-05T18:58:36.439Z,1.81
2018-02-05T19:01:04.101Z,1.73
2018-02-05T19:03:31.653Z,1.73
2018-02-05T19:05:59.250Z,1.76
2018-02-05T19:08:26.840Z,1.72
2018-02-05T19:10:54.390Z,1.61
2018-02-05T19:13:22.013Z,1.62
2018-02-05T19:15:49.584Z,1.62
2018-02-05T19:18:17.141Z,1.57
2018-02-05T19:20:44.765Z,1.50
2018-02-05T19:23:12.370Z,1.47
2018-02-05T19:25:40.085Z,1.46
2018-02-05T19:28:07.724Z,1.43
2018-02-05T19:30:35.291Z,1.39
2018-02-05T19:33:02.873Z,1.39
2018-02-05T19:35:30.471Z,1.37
2018-02-05T19:37:59.479Z,1.30
2018-02-05T19:40:27.085Z,1.32
2018-02-05T19:42:54.740Z,1.30
2018-02-05T19:45:22.486Z,1.27
2018-02-05T19:47:50.124Z,1.15
2018-02-05T19:50:17.699Z,1.19
2018-02-05T19:52:45.298Z,1.13
2018-02-05T19:55:12.919Z,1.07
2018-02-05T19:57:40.485Z,1.03
2018-02-05T20:00:08.060Z,0.99
2018-02-05T20:02:35.795Z,0.99
2018-02-05T20:05:03.360Z,1.03
2018-02-05T20:07:31.041Z,0.97
2018-02-05T20:09:58.632Z,0.89
2018-02-05T20:12:26.192Z,0.90
2018-02-05T20:14:53.745Z,0.86
2018-02-05T20:17:21.495Z,0.81
2018-02-05T20:19:49.074Z,0.75
2018-02-05T20:22:16.636Z,0.73
2018-02-05T20:24:44.222Z,0.58
2018-02-05T20:27:11.785Z,0.56
2018-02-05T20:29:39.359Z,0.50
2018-02-05T20:32:06.949Z,0.46
2018-02-05T20:34:34.513Z,0.45
2018-02-05T20:37:02.086Z,0.40
2018-02-05T20:39:29.688Z,0.45
2018-02-05T20:41:57.314Z,0.46
2018-02-05T20:44:24.976Z,0.44
2018-02-05T20:46:52.596Z,0.44
2018-02-05T20:49:20.155Z,0.39
2018-02-05T20:51:47.754Z,0.31
2018-02-05T20:54:15.339Z,0.31
2018-02-05T20:56:42.903Z,0.42
2018-02-05T20:59:10.461Z,0.40
2018-02-05T21:01:38.144Z,0.36
2018-02-05T21:04:05.734Z,0.33
2018-02-05T21:06:33.311Z,0.30
2018-02-05T21:09:00.893Z,0.32
2018-02-05T21:11:28.445Z,0.31
2018-02-05T21:13:55.993Z,0.37
2018-02-05T21:16:23.589Z,0.35
2018-02-05T21:18:51.147Z,0.34
2018-02-05T21:21:18.702Z,0.38
2018-02-05T21:23:46.301Z,0.41
2018-02-05T21:26:13.851Z,0.49
2018-02-05T21:28:41.418Z,0.56
2018-02-05T21:31:08.990Z,0.59
2018-02-05T21:33:36.543Z,0.66
2018-02-05T21:36:04.132Z,0.80
2018-02-05T21:38:31.748Z,0.85
2018-02-05T21:40:59.351Z,0.89
2018-02-05T21:43:26.928Z,0.98
2018-02-05T21:45:54.532Z,0.99
2018-02-05T21:48:22.134Z,1.05
2018-02-05T21:50:49.711Z,1.07
2018-02-05T21:53:17.299Z,1.10
2018-02-05T21:55:44.892Z,1.11
2018-02-05T21:58:12.447Z,1.13
2018-02-05T22:00:40.053Z,1.18
2018-02-05T22:03:07.657Z,1.19
2018-02-05T22:05:35.242Z,1.05
2018-02-05T22:08:02.840Z,1.01
2018-02-05T22:10:30.400Z,0.99
2018-02-05T22:12:58.056Z,1.02
2018-02-05T22:15:25.646Z,1.10
2018-02-05T22:17:53.213Z,1.16
2018-02-05T22:20:20.785Z,1.25
2018-02-05T22:22:48.404Z,1.33
2018-02-05T22:25:15.970Z,1.39
2018-02-05T22:27:43.544Z,1.46
2018-02-05T22:30:11.153Z,1.53
2018-02-05T22:32:38.718Z,1.52
2018-02-05T22:35:06.273Z,1.52
2018-02-05T22:37:33.905Z,1.41
2018-02-05T22:40:01.459Z,1.38
2018-02-05T22:42:29.014Z,1.32
2018-02-05T22:44:56.633Z,1.26
2018-02-05T22:47:24.184Z,1.23
2018-02-05T22:49:51.736Z,1.27
2018-02-05T22:52:19.327Z,1.33
2018-02-05T22:54:46.889Z,1.40
2018-02-05T22:57:14.449Z,1.45
2018-02-05T22:59:42.056Z,1.51
2018-02-05T23:02:09.621Z,1.56
2018-02-05T23:04:37.183Z,1.56
2018-02-05T23:07:04.780Z,1.53
2018-02-05T23:09:32.347Z,1.53
2018-02-05T23:11:59.903Z,1.60
2018-02-05T23:14:27.514Z,1.65
2018-02-05T23:16:55.696Z,1.66
2018-02-05T23:19:25.090Z,1.69
2018-02-05T23:21:52.819Z,1.73
2018-02-05T23:24:20.369Z,1.77
2018-02-05T23:26:47.945Z,1.73
2018-02-05T23:29:15.536Z,1.71
2018-02-05T23:31:43.096Z,1.71
2018-02-05T23:34:11.876Z,1.73
2018-02-05T23:36:39.768Z,1.70
2018-02-05T23:39:07.334Z,1.65
2018-02-05T23:41:35.052Z,1.62
2018-02-05T23:44:02.636Z,1.59
2018-02-05T23:46:30.332Z,1.57
2018-02-05T23:48:57.884Z,1.55
2018-02-05T23:51:25.491Z,1.55
2018-02-05T23:53:53.050Z,1.57
2018-02-05T23:56:20.660Z,1.56
2018-02-05T23:58:48.412Z,1.56
